Time;durP1;ratioP1;P1;durP2;ratioP2;P2;SDS_P1;SDS_P2;PMS_P1;PMS_P2;Temp;Humidity;BMP_temperature;BMP_pressure;BME280_temperature;BME280_humidity;BME280_pressure;Samples;Min_cycle;Max_cycle;Signal;HPM_P1;HPM_P2
2024/03/07 00:02:17;;;;;;;32.97;30.37;;;10.00;33.50;;;;;;4969984;28;20202;-80
2024/03/07 00:04:43;;;;;;;33.03;30.33;;;10.00;32.30;;;;;;4959940;28;20589;-80
2024/03/07 00:07:09;;;;;;;31.53;29.07;;;10.00;32.00;;;;;;4974450;28;20454;-80
2024/03/07 00:09:35;;;;;;;33.07;30.40;;;10.00;31.50;;;;;;4974729;28;20439;-81
2024/03/07 00:12:05;;;;;;;35.13;32.30;;;10.00;31.50;;;;;;4974040;28;20522;-80
2024/03/07 00:14:31;;;;;;;33.80;31.10;;;10.00;31.50;;;;;;4959238;28;20430;-79
2024/03/07 00:16:59;;;;;;;33.97;31.30;;;10.00;31.50;;;;;;4973863;28;20457;-80
2024/03/07 00:19:26;;;;;;;34.27;31.60;;;10.00;31.50;;;;;;4959349;28;20450;-79
2024/03/07 00:21:56;;;;;;;33.23;30.40;;;10.00;30.90;;;;;;4980237;28;20431;-79
2024/03/07 00:24:22;;;;;;;32.60;30.00;;;10.00;30.80;;;;;;4981540;28;20474;-80
2024/03/07 00:26:51;;;;;;;33.73;31.03;;;10.00;30.70;;;;;;4985014;28;20449;-78
2024/03/07 00:29:20;;;;;;;31.40;28.90;;;10.00;30.50;;;;;;4977889;28;20485;-80
2024/03/07 00:31:46;;;;;;;34.73;32.10;;;10.10;30.70;;;;;;4988482;28;20427;-80
2024/03/07 00:34:16;;;;;;;33.90;31.23;;;10.10;30.00;;;;;;4958343;28;20908;-80
2024/03/07 00:36:45;;;;;;;34.60;32.00;;;10.10;30.00;;;;;;4972812;28;20482;-80
2024/03/07 00:39:14;;;;;;;34.53;31.47;;;10.20;29.60;;;;;;4958999;28;20958;-80
2024/03/07 00:41:41;;;;;;;33.73;31.07;;;10.20;29.40;;;;;;4957684;28;20435;-80
2024/03/07 00:44:08;;;;;;;32.43;29.90;;;10.20;29.30;;;;;;4957198;28;20470;-81
2024/03/07 00:46:34;;;;;;;32.07;29.67;;;10.20;28.90;;;;;;4968098;28;20457;-80
2024/03/07 00:49:00;;;;;;;31.67;29.27;;;10.20;28.70;;;;;;4977809;28;20433;-80
2024/03/07 00:51:25;;;;;;;33.70;31.00;;;10.20;28.40;;;;;;4991420;28;20802;-81
2024/03/07 00:53:51;;;;;;;33.23;30.60;;;10.20;28.50;;;;;;4975973;28;20191;-80
2024/03/07 00:56:16;;;;;;;35.83;32.77;;;10.10;27.70;;;;;;4975845;28;20253;-79
2024/03/07 00:58:42;;;;;;;35.20;32.37;;;10.00;28.40;;;;;;4958410;28;20195;-79
2024/03/07 01:01:08;;;;;;;34.40;31.60;;;10.10;28.10;;;;;;4957010;28;20274;-80
2024/03/07 01:03:33;;;;;;;33.57;30.90;;;10.10;27.40;;;;;;4955286;28;20214;-79
2024/03/07 01:05:59;;;;;;;33.67;31.10;;;10.10;27.20;;;;;;4962550;28;20434;-79
2024/03/07 01:08:25;;;;;;;36.30;33.60;;;10.10;27.00;;;;;;4975747;28;20186;-78
2024/03/07 01:10:50;;;;;;;34.63;31.87;;;10.10;26.90;;;;;;4981294;28;20428;-80
2024/03/07 01:13:18;;;;;;;35.27;32.50;;;10.10;26.60;;;;;;4963782;28;20550;-80
2024/03/07 01:15:45;;;;;;;35.50;32.67;;;10.10;26.40;;;;;;4966055;28;20191;-80
2024/03/07 01:18:10;;;;;;;37.70;34.47;;;10.10;26.40;;;;;;4957369;28;20442;-79
2024/03/07 01:20:36;;;;;;;36.57;33.33;;;10.20;26.40;;;;;;4972528;28;20434;-79
2024/03/07 01:23:01;;;;;;;34.60;31.70;;;10.20;26.40;;;;;;4970671;28;20195;-79
2024/03/07 01:25:27;;;;;;;34.53;31.60;;;10.20;26.30;;;;;;4957760;28;20233;-80
2024/03/07 01:27:52;;;;;;;34.07;31.43;;;10.20;26.20;;;;;;4983682;28;20679;-80
2024/03/07 01:30:18;;;;;;;35.17;32.47;;;10.10;25.90;;;;;;4967295;28;20190;-80
2024/03/07 01:32:43;;;;;;;35.30;32.70;;;10.20;25.70;;;;;;4956477;28;20281;-80
2024/03/07 01:35:09;;;;;;;36.43;33.73;;;10.10;26.50;;;;;;4963658;28;20187;-80
2024/03/07 01:37:35;;;;;;;36.90;34.23;;;10.10;26.30;;;;;;4982906;28;20645;-80
2024/03/07 01:40:01;;;;;;;36.83;33.40;;;10.10;26.20;;;;;;4977313;28;20209;-80
2024/03/07 01:42:27;;;;;;;38.20;34.97;;;10.10;25.90;;;;;;4984419;28;20258;-77
2024/03/07 01:44:52;;;;;;;37.00;34.20;;;10.20;25.60;;;;;;4996973;28;20481;-78
2024/03/07 01:47:18;;;;;;;35.33;32.43;;;10.10;25.10;;;;;;4990995;28;20207;-77
2024/03/07 01:49:44;;;;;;;36.57;33.87;;;10.00;24.90;;;;;;5001923;28;20187;-77
2024/03/07 01:52:11;;;;;;;36.83;33.70;;;10.10;25.20;;;;;;4977946;28;20217;-79
2024/03/07 01:54:36;;;;;;;36.57;33.77;;;10.10;24.80;;;;;;4967401;28;20462;-79
2024/03/07 01:57:03;;;;;;;38.97;36.07;;;10.00;24.60;;;;;;4970010;28;20450;-79
2024/03/07 01:59:30;;;;;;;38.40;35.17;;;10.00;24.60;;;;;;4958361;28;20199;-78
2024/03/07 02:01:56;;;;;;;36.17;33.33;;;9.90;25.50;;;;;;4954026;28;20485;-80
2024/03/07 02:04:23;;;;;;;38.53;35.03;;;9.90;25.10;;;;;;4964643;28;20470;-78
2024/03/07 02:06:49;;;;;;;40.37;37.23;;;9.90;25.40;;;;;;4970784;28;20462;-79
2024/03/07 02:09:15;;;;;;;37.57;34.90;;;9.90;25.30;;;;;;4972012;28;20430;-80
2024/03/07 02:11:40;;;;;;;37.03;34.00;;;9.90;24.60;;;;;;4971827;28;20552;-78
2024/03/07 02:14:06;;;;;;;40.67;37.17;;;9.80;24.90;;;;;;4973352;28;20237;-79
2024/03/07 02:16:31;;;;;;;38.83;35.70;;;9.90;24.70;;;;;;4966164;28;20249;-79
2024/03/07 02:18:59;;;;;;;40.47;37.17;;;9.80;24.20;;;;;;4962427;28;20561;-79
2024/03/07 02:21:25;;;;;;;40.20;37.00;;;9.80;24.60;;;;;;4985759;28;20240;-79
2024/03/07 02:23:51;;;;;;;39.67;36.57;;;9.80;24.80;;;;;;4970352;28;20502;-80
2024/03/07 02:26:16;;;;;;;39.20;36.17;;;9.70;24.50;;;;;;4961789;28;20213;-80
2024/03/07 02:28:42;;;;;;;40.43;37.37;;;9.70;24.30;;;;;;4953990;28;20427;-79
2024/03/07 02:31:07;;;;;;;41.63;38.33;;;9.80;23.80;;;;;;4963309;28;20262;-80
2024/03/07 02:33:33;;;;;;;42.17;38.67;;;9.70;23.70;;;;;;4961634;28;20218;-78
2024/03/07 02:35:58;;;;;;;40.47;37.23;;;9.70;23.70;;;;;;4974163;28;20542;-80
2024/03/07 02:38:24;;;;;;;38.90;35.90;;;9.60;23.60;;;;;;4967403;28;20671;-80
2024/03/07 02:40:49;;;;;;;40.67;37.57;;;9.60;23.30;;;;;;4955310;28;20195;-79
2024/03/07 02:43:15;;;;;;;40.07;36.93;;;9.60;22.90;;;;;;4954859;28;20184;-79
2024/03/07 02:45:41;;;;;;;40.80;37.63;;;9.60;23.20;;;;;;4964517;28;20187;-78
2024/03/07 02:48:09;;;;;;;40.93;37.77;;;9.60;23.00;;;;;;4974528;28;20449;-79
2024/03/07 02:50:37;;;;;;;39.57;36.37;;;9.60;23.00;;;;;;4973930;28;20179;-79
2024/03/07 02:53:03;;;;;;;41.87;38.43;;;9.60;22.80;;;;;;4966772;28;20791;-79
2024/03/07 02:55:29;;;;;;;39.93;36.73;;;9.60;22.50;;;;;;4966553;28;20430;-79
2024/03/07 02:57:56;;;;;;;40.80;37.67;;;9.60;22.60;;;;;;4969415;28;20449;-80
2024/03/07 03:00:26;;;;;;;42.60;39.20;;;9.60;22.50;;;;;;4986658;28;20185;-79
2024/03/07 03:02:52;;;;;;;38.97;36.00;;;9.60;22.60;;;;;;4968989;28;20433;-78
2024/03/07 03:05:18;;;;;;;40.33;37.20;;;9.60;22.60;;;;;;4969564;28;20465;-79
2024/03/07 03:07:52;;;;;;;44.07;40.47;;;9.60;22.60;;;;;;4983444;28;20511;-80
2024/03/07 03:10:28;;;;;;;41.47;38.20;;;9.60;22.30;;;;;;4970289;28;20429;-79
2024/03/07 03:12:57;;;;;;;42.80;39.30;;;9.60;22.30;;;;;;4973648;28;20434;-78
2024/03/07 03:15:23;;;;;;;42.13;38.43;;;9.50;22.80;;;;;;4974294;28;20441;-80
2024/03/07 03:17:49;;;;;;;42.33;38.80;;;9.50;22.40;;;;;;4999143;23;20504;-80
2024/03/07 03:20:33;;;;;;;42.67;39.37;;;9.50;22.40;;;;;;4987488;28;20186;-80
2024/03/07 03:22:59;;;;;;;42.17;38.77;;;9.50;22.60;;;;;;4994600;28;20649;-79
2024/03/07 03:25:26;;;;;;;42.20;38.90;;;9.40;22.60;;;;;;4988513;28;20477;-79
2024/03/07 03:27:52;;;;;;;42.67;39.43;;;9.50;22.70;;;;;;4987403;28;20450;-79
2024/03/07 03:30:18;;;;;;;43.40;39.87;;;9.40;22.40;;;;;;4986771;28;20434;-80
2024/03/07 03:32:47;;;;;;;42.57;39.37;;;9.40;22.30;;;;;;4988250;28;20434;-79
2024/03/07 03:35:13;;;;;;;41.80;38.60;;;9.30;22.50;;;;;;4987272;28;20446;-80
2024/03/07 03:37:41;;;;;;;41.20;38.10;;;9.30;22.80;;;;;;4986276;28;20449;-79
2024/03/07 03:40:09;;;;;;;43.70;40.10;;;9.30;23.50;;;;;;4984547;28;20433;-79
2024/03/07 03:42:35;;;;;;;43.80;40.30;;;9.30;23.50;;;;;;4991918;28;20442;-79
2024/03/07 03:45:06;;;;;;;41.13;37.70;;;9.30;23.50;;;;;;4984260;28;20996;-79
2024/03/07 03:47:37;;;;;;;40.50;37.50;;;9.20;23.40;;;;;;4999845;28;20477;-79
2024/03/07 03:50:08;;;;;;;43.17;39.60;;;9.20;23.40;;;;;;5003155;28;20438;-79
2024/03/07 03:52:37;;;;;;;43.67;39.97;;;9.00;23.50;;;;;;5001835;28;20433;-79
2024/03/07 03:55:06;;;;;;;44.17;40.60;;;8.50;25.00;;;;;;4990545;28;21024;-79
2024/03/07 03:57:33;;;;;;;43.67;40.10;;;8.50;25.80;;;;;;4982309;28;20521;-79
2024/03/07 04:00:22;;;;;;;44.67;41.10;;;8.60;25.30;;;;;;4999074;28;20438;-79
2024/03/07 04:02:48;;;;;;;44.97;41.50;;;8.60;24.40;;;;;;4992004;28;20971;-79
2024/03/07 04:05:16;;;;;;;43.57;40.17;;;8.70;23.90;;;;;;5001622;28;20469;-79
2024/03/07 04:07:42;;;;;;;45.03;41.60;;;8.70;24.50;;;;;;5001281;28;20826;-79
2024/03/07 04:10:09;;;;;;;42.13;38.80;;;8.60;24.70;;;;;;5001356;28;20433;-79
2024/03/07 04:12:39;;;;;;;45.40;42.00;;;8.60;24.00;;;;;;5003378;28;20500;-79
2024/03/07 04:15:08;;;;;;;44.57;40.93;;;8.70;23.10;;;;;;5002271;28;21130;-79
2024/03/07 04:17:34;;;;;;;42.50;39.03;;;8.70;23.10;;;;;;5001098;28;20460;-79
2024/03/07 04:20:02;;;;;;;43.80;40.33;;;8.80;22.80;;;;;;5001970;28;20434;-79
2024/03/07 04:22:28;;;;;;;42.50;39.40;;;8.90;22.30;;;;;;4994407;28;20438;-79
2024/03/07 04:24:54;;;;;;;41.67;38.53;;;9.00;22.00;;;;;;4988976;28;20474;-79
2024/03/07 04:27:21;;;;;;;40.33;36.93;;;9.10;21.80;;;;;;4980676;28;20682;-79
2024/03/07 04:29:47;;;;;;;40.37;37.37;;;9.20;21.80;;;;;;4980049;28;20430;-79
2024/03/07 04:32:13;;;;;;;41.03;37.70;;;9.30;21.20;;;;;;4982573;28;20430;-79
2024/03/07 04:34:39;;;;;;;41.07;37.87;;;9.30;21.00;;;;;;4990799;28;20426;-79
2024/03/07 04:37:05;;;;;;;42.50;39.23;;;9.30;21.00;;;;;;4981154;28;20515;-81
2024/03/07 04:39:32;;;;;;;40.87;37.67;;;9.30;21.10;;;;;;4982700;28;20477;-79
2024/03/07 04:42:02;;;;;;;41.50;38.13;;;9.40;20.70;;;;;;4980000;28;20310;-79
2024/03/07 04:44:31;;;;;;;42.10;38.50;;;9.40;20.50;;;;;;4979843;28;20473;-79
2024/03/07 04:47:00;;;;;;;39.80;36.80;;;9.40;20.60;;;;;;4979883;28;20561;-79
2024/03/07 04:49:28;;;;;;;40.80;37.70;;;9.40;20.70;;;;;;4979889;28;20434;-79
2024/03/07 04:51:55;;;;;;;39.50;36.50;;;9.30;20.80;;;;;;4975306;28;20430;-78
2024/03/07 04:54:22;;;;;;;40.47;37.53;;;9.30;20.60;;;;;;4981506;28;20537;-78
2024/03/07 04:56:49;;;;;;;40.60;37.40;;;9.40;20.70;;;;;;4984301;28;20452;-79
2024/03/07 04:59:16;;;;;;;38.70;35.73;;;9.30;20.80;;;;;;4985542;28;20426;-80
2024/03/07 05:01:42;;;;;;;39.87;36.93;;;9.30;20.60;;;;;;4987764;28;20422;-79
2024/03/07 05:04:08;;;;;;;40.57;37.37;;;9.00;21.30;;;;;;4991246;28;20524;-77
2024/03/07 05:06:34;;;;;;;41.83;38.27;;;9.00;21.30;;;;;;4986010;28;20449;-79
2024/03/07 05:09:03;;;;;;;39.73;36.80;;;9.00;21.50;;;;;;4988785;28;20669;-81
2024/03/07 05:11:30;;;;;;;41.33;38.20;;;9.00;21.00;;;;;;4982506;28;20453;-82
2024/03/07 05:13:57;;;;;;;46.60;42.50;;;9.00;21.80;;;;;;4981039;28;20434;-78
2024/03/07 05:16:27;;;;;;;42.83;39.37;;;9.00;21.30;;;;;;4984223;28;20464;-78
2024/03/07 05:18:52;;;;;;;42.53;39.17;;;9.10;21.00;;;;;;4994669;28;20524;-78
2024/03/07 05:23:57;;;;;;;40.93;37.43;;;9.10;21.20;;;;;;4986115;28;20465;-79
2024/03/07 05:26:23;;;;;;;40.00;36.90;;;9.00;21.10;;;;;;4997534;28;20557;-78
2024/03/07 05:28:49;;;;;;;42.27;38.77;;;9.00;20.90;;;;;;4985739;28;20434;-78
2024/03/07 05:31:14;;;;;;;41.10;37.80;;;8.90;21.20;;;;;;4986551;28;20449;-77
2024/03/07 05:33:40;;;;;;;42.63;39.33;;;8.80;21.80;;;;;;4995588;28;20198;-77
2024/03/07 05:36:15;;;;;;;42.47;39.30;;;8.80;21.70;;;;;;4987425;28;20194;-80
2024/03/07 05:38:44;;;;;;;42.23;38.87;;;8.80;21.30;;;;;;5001662;28;20185;-79
2024/03/07 05:41:12;;;;;;;42.53;39.37;;;8.80;21.30;;;;;;5000017;28;20438;-80
2024/03/07 05:43:37;;;;;;;40.60;37.40;;;8.80;21.50;;;;;;4994056;28;20999;-80
2024/03/07 05:46:05;;;;;;;43.40;39.80;;;8.80;21.30;;;;;;4998541;28;20452;-79
2024/03/07 05:48:31;;;;;;;39.63;36.50;;;8.90;21.00;;;;;;5001113;28;20196;-79
2024/03/07 05:50:57;;;;;;;40.70;37.20;;;8.70;21.00;;;;;;4988413;28;20425;-79
2024/03/07 05:53:23;;;;;;;40.97;37.63;;;8.70;21.20;;;;;;4995430;28;20437;-81
2024/03/07 05:55:48;;;;;;;40.30;37.10;;;8.70;21.20;;;;;;5003309;28;20425;-81
2024/03/07 05:58:14;;;;;;;42.47;39.10;;;8.70;21.20;;;;;;5003361;28;20702;-81
2024/03/07 06:00:43;;;;;;;40.63;37.60;;;8.60;21.20;;;;;;4989735;28;20190;-78
2024/03/07 06:03:10;;;;;;;42.33;39.07;;;8.50;21.90;;;;;;4997426;28;20440;-80
2024/03/07 06:05:36;;;;;;;40.47;37.27;;;8.50;21.70;;;;;;5000561;28;20477;-79
2024/03/07 06:08:02;;;;;;;40.97;37.77;;;8.50;21.60;;;;;;4993744;28;20763;-79
2024/03/07 06:10:27;;;;;;;41.67;38.57;;;8.60;21.10;;;;;;5002745;28;20189;-79
2024/03/07 06:13:04;;;;;;;42.83;39.53;;;8.60;21.10;;;;;;5001293;28;20190;-79
2024/03/07 06:15:30;;;;;;;41.57;38.27;;;8.60;21.70;;;;;;4990340;28;20189;-79
2024/03/07 06:17:56;;;;;;;42.50;39.07;;;8.30;21.80;;;;;;4985339;28;20506;-79
2024/03/07 06:20:24;;;;;;;41.70;38.30;;;8.30;22.30;;;;;;5001422;28;20445;-79
2024/03/07 06:22:52;;;;;;;42.60;39.10;;;8.30;21.60;;;;;;4988555;28;20572;-78
2024/03/07 06:25:20;;;;;;;40.33;37.03;;;8.10;21.50;;;;;;4986795;28;20466;-78
2024/03/07 06:27:49;;;;;;;39.10;36.00;;;7.80;22.10;;;;;;4998253;28;20453;-78
2024/03/07 06:30:18;;;;;;;37.80;34.90;;;7.80;22.60;;;;;;4999882;28;20488;-78
2024/03/07 06:32:44;;;;;;;36.93;34.00;;;7.90;22.30;;;;;;5004157;28;20421;-78
2024/03/07 06:35:10;;;;;;;40.33;37.33;;;7.90;22.10;;;;;;4995031;28;20444;-77
2024/03/07 06:37:35;;;;;;;42.10;38.90;;;7.80;21.80;;;;;;4989437;28;20450;-78
2024/03/07 06:40:06;;;;;;;36.73;33.90;;;7.80;22.60;;;;;;4995598;28;20189;-79
2024/03/07 06:42:32;;;;;;;39.80;36.87;;;7.90;21.70;;;;;;4996403;28;20548;-79
2024/03/07 06:44:58;;;;;;;39.37;36.27;;;7.70;22.40;;;;;;4992425;28;20514;-78
2024/03/07 06:47:24;;;;;;;36.40;33.30;;;7.70;22.40;;;;;;4995983;28;20461;-79
2024/03/07 06:49:52;;;;;;;39.43;36.43;;;7.80;21.80;;;;;;5000989;28;20236;-78
2024/03/07 06:52:18;;;;;;;36.70;33.70;;;7.90;21.90;;;;;;4998431;28;20429;-79
2024/03/07 06:54:43;;;;;;;38.73;35.43;;;8.00;21.80;;;;;;5002909;28;20440;-79
2024/03/07 06:57:09;;;;;;;37.67;34.87;;;8.10;21.60;;;;;;4997852;28;20272;-78
2024/03/07 06:59:36;;;;;;;36.60;33.70;;;8.10;21.40;;;;;;4999396;28;20204;-78
2024/03/07 07:02:03;;;;;;;37.40;34.40;;;8.20;21.70;;;;;;4997389;28;20194;-78
2024/03/07 07:04:41;;;;;;;37.50;34.70;;;8.20;21.30;;;;;;4994424;28;20542;-79
2024/03/07 07:07:08;;;;;;;38.00;34.90;;;8.20;21.00;;;;;;4993903;28;20475;-80
2024/03/07 07:09:35;;;;;;;37.40;34.50;;;8.30;21.00;;;;;;4991419;28;20773;-80
2024/03/07 07:12:02;;;;;;;36.53;33.80;;;8.30;20.70;;;;;;4989414;28;20434;-80
2024/03/07 07:14:28;;;;;;;35.20;32.30;;;8.30;20.20;;;;;;4991450;28;20437;-80
2024/03/07 07:17:05;;;;;;;34.90;32.23;;;8.30;19.90;;;;;;4991672;28;20533;-82
2024/03/07 07:19:32;;;;;;;34.47;31.87;;;8.30;19.70;;;;;;4977875;28;20194;-81
2024/03/07 07:22:10;;;;;;;35.20;32.50;;;8.30;19.60;;;;;;4987373;28;20438;-81
2024/03/07 07:24:40;;;;;;;33.50;31.10;;;8.30;19.70;;;;;;4993449;28;20487;-81
2024/03/07 07:27:08;;;;;;;33.80;31.40;;;8.20;20.30;;;;;;4971214;28;20485;-81
2024/03/07 07:29:33;;;;;;;31.70;29.37;;;8.20;20.00;;;;;;4997230;28;20463;-81
2024/03/07 07:31:59;;;;;;;32.83;30.13;;;8.20;19.50;;;;;;5004055;28;20413;-82
2024/03/07 07:34:25;;;;;;;34.20;31.60;;;8.20;19.70;;;;;;4996507;28;20183;-82
2024/03/07 07:36:51;;;;;;;32.40;29.93;;;8.30;19.40;;;;;;5002546;28;20201;-82
2024/03/07 07:39:16;;;;;;;34.57;31.97;;;8.30;19.20;;;;;;4991470;28;20428;-81
2024/03/07 07:41:43;;;;;;;32.67;30.17;;;8.30;19.20;;;;;;4996685;28;20182;-82
2024/03/07 07:44:09;;;;;;;33.47;30.67;;;8.30;19.60;;;;;;5008984;28;20206;-81
2024/03/07 07:46:34;;;;;;;34.03;31.53;;;8.30;19.40;;;;;;4987915;28;20468;-82
2024/03/07 07:49:02;;;;;;;31.73;29.33;;;8.30;19.40;;;;;;4991135;28;20426;-82
2024/03/07 07:51:28;;;;;;;35.20;32.53;;;8.30;19.00;;;;;;4993734;28;20210;-82
2024/03/07 07:53:56;;;;;;;32.93;30.43;;;8.20;19.50;;;;;;5002780;28;20436;-82
2024/03/07 07:56:24;;;;;;;32.20;29.70;;;8.10;19.40;;;;;;4993415;28;20214;-82
2024/03/07 07:58:51;;;;;;;33.47;31.07;;;8.00;20.30;;;;;;4995491;28;20925;-82
2024/03/07 08:01:17;;;;;;;34.13;31.53;;;8.00;20.00;;;;;;5002603;28;20452;-82
2024/03/07 08:03:44;;;;;;;36.20;33.40;;;8.00;20.10;;;;;;4985621;28;20549;-82
2024/03/07 08:06:10;;;;;;;35.03;32.43;;;8.00;20.00;;;;;;5001626;28;20444;-82
2024/03/07 08:08:35;;;;;;;35.53;32.87;;;7.90;20.40;;;;;;4990624;28;20946;-82
2024/03/07 08:11:01;;;;;;;37.77;34.57;;;8.00;20.40;;;;;;4999699;28;20472;-82
2024/03/07 08:13:27;;;;;;;35.07;32.37;;;8.00;20.30;;;;;;4990353;28;20811;-82
2024/03/07 08:15:53;;;;;;;34.93;32.23;;;8.00;20.60;;;;;;4997605;28;20446;-82
2024/03/07 08:18:20;;;;;;;35.93;33.27;;;7.90;21.10;;;;;;4998385;28;20840;-82
2024/03/07 08:20:46;;;;;;;36.17;33.43;;;7.80;21.80;;;;;;5000820;28;20425;-82
2024/03/07 08:23:12;;;;;;;36.10;33.20;;;7.60;22.40;;;;;;4996089;28;20782;-82
2024/03/07 08:25:41;;;;;;;35.57;32.90;;;7.70;22.50;;;;;;4995562;28;20465;-82
2024/03/07 08:28:08;;;;;;;34.50;31.90;;;7.80;22.20;;;;;;4986770;28;20451;-82
2024/03/07 08:30:34;;;;;;;36.20;33.23;;;7.90;22.00;;;;;;4999572;28;20422;-82
2024/03/07 08:33:03;;;;;;;35.53;32.77;;;8.00;22.30;;;;;;4994364;28;20452;-82
2024/03/07 08:35:31;;;;;;;34.47;31.87;;;8.10;21.80;;;;;;4983083;28;20494;-82
2024/03/07 08:37:57;;;;;;;35.10;31.77;;;8.20;21.50;;;;;;4990497;28;20481;-82
2024/03/07 08:40:25;;;;;;;32.30;29.77;;;8.00;21.50;;;;;;4994509;28;20413;-82
2024/03/07 08:42:53;;;;;;;31.70;29.37;;;7.90;21.80;;;;;;4998298;28;20425;-82
2024/03/07 08:45:20;;;;;;;32.60;30.20;;;7.80;21.70;;;;;;4991218;28;20836;-81
2024/03/07 08:47:47;;;;;;;33.17;30.67;;;7.90;21.80;;;;;;5001846;28;20460;-80
2024/03/07 08:50:13;;;;;;;32.57;29.87;;;8.00;20.70;;;;;;4990827;28;20417;-81
2024/03/07 08:52:40;;;;;;;33.50;30.70;;;8.10;21.40;;;;;;4992543;28;20409;-83
2024/03/07 08:55:19;;;;;;;32.13;29.73;;;8.10;21.50;;;;;;5003221;28;20447;-84
2024/03/07 08:57:46;;;;;;;30.50;28.30;;;8.20;20.90;;;;;;4989551;28;20446;-83
2024/03/07 09:00:23;;;;;;;30.57;28.20;;;8.30;20.90;;;;;;4992173;28;20421;-82
2024/03/07 09:02:53;;;;;;;31.60;28.90;;;8.40;20.20;;;;;;4988757;28;20490;-82
2024/03/07 09:05:21;;;;;;;32.80;30.30;;;8.40;20.20;;;;;;4989389;28;20473;-81
2024/03/07 09:07:50;;;;;;;33.60;30.90;;;8.50;19.60;;;;;;4989920;28;21027;-81
2024/03/07 09:10:17;;;;;;;32.87;30.17;;;8.50;21.20;;;;;;4991979;28;20508;-86
2024/03/07 09:13:28;;;;;;;32.07;29.40;;;8.40;20.10;;;;;;4987420;28;20430;-82
2024/03/07 09:16:25;;;;;;;30.33;28.13;;;8.40;21.40;;;;;;4993522;28;20432;-83
2024/03/07 09:18:59;;;;;;;34.13;31.43;;;8.30;20.20;;;;;;4995212;28;20794;-79
2024/03/07 09:21:42;;;;;;;33.87;31.40;;;8.30;20.70;;;;;;4992910;28;20418;-83
2024/03/07 09:24:08;;;;;;;33.93;31.23;;;8.30;20.40;;;;;;4991988;28;20452;-83
2024/03/07 09:26:35;;;;;;;33.73;31.27;;;8.30;20.80;;;;;;4986715;28;20574;-83
2024/03/07 09:29:05;;;;;;;32.50;29.77;;;8.30;20.90;;;;;;4989298;28;20457;-83
2024/03/07 09:31:41;;;;;;;33.23;30.67;;;8.20;21.30;;;;;;4986840;28;20790;-83
2024/03/07 09:34:08;;;;;;;34.03;31.03;;;8.30;21.20;;;;;;4984229;28;20947;-82
2024/03/07 09:36:41;;;;;;;33.83;31.13;;;8.30;21.70;;;;;;4990200;28;20453;-82
2024/03/07 09:39:08;;;;;;;35.20;32.30;;;8.40;21.20;;;;;;4972100;28;20425;-82
2024/03/07 09:41:57;;;;;;;34.90;31.90;;;8.50;20.70;;;;;;4996333;28;20459;-84
2024/03/07 09:44:25;;;;;;;32.83;30.50;;;8.70;20.50;;;;;;4987317;28;20453;-84
2024/03/07 09:46:54;;;;;;;33.37;30.70;;;8.80;20.70;;;;;;4987204;28;20459;-84
2024/03/07 09:49:20;;;;;;;35.03;32.30;;;8.70;20.50;;;;;;4986961;28;20421;-84
2024/03/07 09:51:58;;;;;;;34.20;31.17;;;8.50;21.30;;;;;;4977506;28;20423;-84
2024/03/07 09:54:29;;;;;;;35.73;33.00;;;8.30;21.60;;;;;;4984230;28;20577;-84
2024/03/07 09:57:02;;;;;;;36.30;33.50;;;8.10;22.30;;;;;;4994383;28;20456;-82
2024/03/07 09:59:30;;;;;;;36.30;33.50;;;8.20;22.90;;;;;;4991801;28;20508;-82
2024/03/07 10:01:59;;;;;;;34.23;31.53;;;8.40;21.80;;;;;;4998092;28;20429;-82
2024/03/07 10:04:45;;;;;;;35.70;32.93;;;8.60;21.60;;;;;;4998913;28;20460;-84
2024/03/07 10:07:13;;;;;;;34.40;31.70;;;8.70;21.20;;;;;;4980926;28;20442;-84
2024/03/07 10:09:56;;;;;;;35.43;32.40;;;8.80;20.90;;;;;;4997728;28;20461;-83
2024/03/07 10:12:26;;;;;;;34.67;31.50;;;8.80;21.10;;;;;;4998688;28;20417;-82
2024/03/07 10:15:22;;;;;;;35.67;32.67;;;8.90;20.60;;;;;;4994810;28;20433;-82
2024/03/07 10:18:21;;;;;;;32.97;30.27;;;9.00;19.90;;;;;;4998727;28;20468;-82
2024/03/07 10:21:11;;;;;;;35.40;32.70;;;9.10;20.20;;;;;;4979148;28;20417;-82
2024/03/07 10:27:11;;;;;;;33.47;30.97;;;8.70;20.20;;;;;;4980642;28;20536;-82
2024/03/07 10:34:11;;;;;;;35.10;32.20;;;8.40;22.00;;;;;;4900956;29;20405;-82
2024/03/07 10:39:37;;;;;;;37.00;34.00;;;8.80;21.50;;;;;;5003957;23;20829;-81
2024/03/07 10:42:55;;;;;;;35.20;32.33;;;8.90;20.70;;;;;;5005464;28;20437;-81
2024/03/07 10:45:37;;;;;;;34.83;32.00;;;9.00;20.40;;;;;;5005795;28;20578;-82
2024/03/07 10:48:49;;;;;;;32.33;29.77;;;9.00;20.60;;;;;;5054751;23;20489;-82
2024/03/07 10:51:33;;;;;;;36.20;33.10;;;9.00;20.90;;;;;;4998678;28;20739;-81
2024/03/07 10:57:30;;;;;;;37.20;34.10;;;9.10;20.50;;;;;;4980732;28;20526;-81
2024/03/07 11:52:27;;;;;;;36.53;33.40;;;9.30;21.20;;;;;;4913368;29;20864;-83
2024/03/07 11:55:23;;;;;;;35.57;32.77;;;9.10;21.80;;;;;;4977060;28;20444;-83
2024/03/07 11:57:56;;;;;;;36.00;32.90;;;9.30;21.50;;;;;;4978322;28;20507;-84
2024/03/07 12:10:46;;;;;;;36.27;33.27;;;9.40;21.80;;;;;;4904793;29;20744;-84
2024/03/07 12:13:15;;;;;;;36.67;33.67;;;9.60;21.70;;;;;;4901508;29;20422;-82
2024/03/07 12:15:51;;;;;;;37.13;34.03;;;9.70;21.00;;;;;;4996199;28;20962;-82
2024/03/07 12:18:20;;;;;;;37.37;34.40;;;9.80;20.90;;;;;;4987115;28;20512;-84
2024/03/07 12:20:55;;;;;;;38.20;34.53;;;9.80;21.10;;;;;;4995257;28;20471;-84
2024/03/07 12:23:25;;;;;;;36.83;33.80;;;9.80;20.60;;;;;;4982998;28;20516;-82
2024/03/07 12:26:04;;;;;;;36.43;33.60;;;9.80;21.00;;;;;;4993163;28;20457;-82
2024/03/07 12:28:33;;;;;;;35.50;32.70;;;9.80;20.80;;;;;;4991838;28;20431;-83
2024/03/07 12:31:02;;;;;;;37.70;34.70;;;9.90;20.70;;;;;;5001155;28;20421;-84
2024/03/07 12:33:29;;;;;;;38.10;34.90;;;10.00;20.10;;;;;;4989852;28;20442;-82
2024/03/07 12:36:18;;;;;;;34.70;31.70;;;10.00;19.80;;;;;;4985725;28;20834;-84
2024/03/07 12:38:48;;;;;;;37.20;34.40;;;10.00;19.10;;;;;;4986165;28;20548;-83
2024/03/07 12:41:16;;;;;;;36.40;33.63;;;10.10;19.50;;;;;;4987215;28;20498;-83
2024/03/07 12:43:42;;;;;;;38.27;35.20;;;10.10;19.20;;;;;;4990127;28;20529;-83
2024/03/07 12:46:11;;;;;;;39.30;36.23;;;10.20;19.40;;;;;;4994279;28;20417;-83
2024/03/07 12:48:38;;;;;;;38.90;35.70;;;10.20;19.20;;;;;;4995966;28;20497;-83
2024/03/07 12:51:05;;;;;;;38.67;35.33;;;10.20;19.40;;;;;;4994124;28;20421;-82
2024/03/07 12:53:42;;;;;;;39.10;35.80;;;10.10;19.80;;;;;;4993159;28;20420;-85
2024/03/07 12:56:09;;;;;;;38.33;35.23;;;10.10;19.50;;;;;;4994653;28;20424;-83
2024/03/07 12:58:34;;;;;;;40.20;36.33;;;10.10;19.40;;;;;;4985315;28;20410;-83
2024/03/07 13:01:00;;;;;;;37.60;34.60;;;10.10;19.20;;;;;;4986723;28;20444;-84
2024/03/07 13:03:29;;;;;;;38.27;34.90;;;10.10;19.90;;;;;;4996692;28;20221;-83
2024/03/07 13:06:01;;;;;;;39.27;35.83;;;10.20;19.20;;;;;;4983297;28;20434;-84
2024/03/07 13:08:30;;;;;;;38.93;35.63;;;10.10;19.80;;;;;;4980154;28;20454;-84
2024/03/07 13:10:59;;;;;;;38.27;35.10;;;10.20;19.50;;;;;;4990070;28;20932;-82
2024/03/07 13:13:25;;;;;;;39.57;36.37;;;10.30;18.60;;;;;;4987298;28;20839;-82
2024/03/07 13:15:54;;;;;;;37.60;34.60;;;10.40;18.70;;;;;;4984351;28;21015;-82
2024/03/07 13:18:20;;;;;;;37.33;34.33;;;10.40;18.10;;;;;;4992134;28;20226;-83
2024/03/07 13:20:45;;;;;;;37.33;34.33;;;10.60;18.00;;;;;;4987718;28;20753;-82
2024/03/07 13:23:12;;;;;;;37.70;34.67;;;10.60;17.30;;;;;;4988270;28;20182;-83
2024/03/07 13:25:38;;;;;;;37.50;34.50;;;10.60;17.50;;;;;;4985267;28;20206;-83
2024/03/07 13:28:28;;;;;;;36.97;34.03;;;10.50;18.00;;;;;;4987145;28;20496;-82
2024/03/07 13:30:54;;;;;;;36.23;33.30;;;10.60;17.70;;;;;;4992019;28;20422;-82
2024/03/07 13:33:20;;;;;;;39.20;35.87;;;10.50;17.50;;;;;;4990537;28;20417;-83
2024/03/07 13:35:48;;;;;;;38.70;35.40;;;10.50;17.80;;;;;;4993986;28;20429;-82
2024/03/07 13:38:15;;;;;;;34.57;31.90;;;10.50;17.60;;;;;;4988129;28;20445;-83
2024/03/07 13:40:41;;;;;;;38.07;35.00;;;10.50;18.30;;;;;;4989050;28;20520;-82
2024/03/07 13:43:14;;;;;;;38.37;35.07;;;10.50;17.50;;;;;;4986949;28;20438;-84
2024/03/07 13:45:49;;;;;;;36.17;33.03;;;10.40;17.70;;;;;;4984784;28;20249;-84
2024/03/07 13:48:16;;;;;;;35.30;32.67;;;10.40;17.90;;;;;;4992257;28;20467;-83
2024/03/07 13:50:48;;;;;;;35.93;33.03;;;10.40;17.70;;;;;;4994314;28;20569;-83
2024/03/07 13:53:18;;;;;;;33.93;31.27;;;10.20;18.10;;;;;;4982762;28;20421;-83
2024/03/07 13:55:59;;;;;;;35.30;32.47;;;10.30;18.00;;;;;;4984411;28;20430;-84
2024/03/07 13:59:04;;;;;;;;;;;;;;;;;;;;;
2024/03/07 14:08:57;;;;;;;35.83;32.63;;;10.50;17.80;;;;;;4930253;29;20420;-83
2024/03/07 14:12:00;;;;;;;34.73;31.93;;;10.40;18.00;;;;;;4936908;29;20791;-83
2024/03/07 14:14:49;;;;;;;35.87;33.10;;;10.40;18.00;;;;;;4982038;28;20425;-81